Terminal Aerodrome Forecast
Issued by NWS

Home | Current Version | Previous Version | Text Only | Print | Product List | Glossary On
Versions: 1 2 3 4 5 6 7 8 9 10 11 12 13 14 15 16 17 18 19 20
000
FTUS41 KGYX 271728
TAFPSM
TAF
KPSM 271728Z 2718/2818 32006KT P6SM SCT050
     FM280400 04007KT 5SM BR OVC025
     FM281200 06011G18KT P6SM OVC015=

USA.gov is the U.S. government's official web portal to all federal, state and local government web resources and services.